createdAt,value
2023-09-17T00:02:38.343Z,79.37
2023-09-17T00:17:39.134Z,81.30
2023-09-17T00:32:40.037Z,82.80
2023-09-17T00:47:40.594Z,81.19
2023-09-17T01:02:43.847Z,79.37
2023-09-17T01:17:41.641Z,82.91
2023-09-17T01:32:42.435Z,81.86
2023-09-17T01:47:42.971Z,81.87
2023-09-17T02:02:43.892Z,81.94
2023-09-17T02:17:44.638Z,82.35
2023-09-17T02:32:45.201Z,80.95
2023-09-17T02:47:45.828Z,83.41
2023-09-17T03:02:46.407Z,81.87
2023-09-17T03:17:46.696Z,81.32
2023-09-17T03:33:01.972Z,82.66
2023-09-17T03:47:48.933Z,82.28
2023-09-17T04:02:48.108Z,82.36
2023-09-17T04:17:48.889Z,80.45
2023-09-17T04:32:51.694Z,82.40
2023-09-17T04:47:50.016Z,83.64
2023-09-17T05:02:51.024Z,83.01
2023-09-17T05:17:51.236Z,82.06
2023-09-17T05:32:51.947Z,82.27
2023-09-17T05:47:52.769Z,83.27
2023-09-17T06:02:53.259Z,83.91
2023-09-17T06:17:54.036Z,84.29
2023-09-17T06:32:54.932Z,83.09
2023-09-17T06:47:55.466Z,80.67
2023-09-17T07:02:55.852Z,78.88
2023-09-17T07:17:56.339Z,77.20
2023-09-17T07:32:57.176Z,74.61
2023-09-17T07:47:57.783Z,73.99
2023-09-17T08:02:58.349Z,71.19
2023-09-17T08:17:59.077Z,71.17
2023-09-17T08:32:59.617Z,67.67
2023-09-17T08:48:00.437Z,66.09
2023-09-17T09:03:01.363Z,63.60
2023-09-17T09:18:02.122Z,59.97
2023-09-17T09:33:02.522Z,57.74
2023-09-17T09:48:03.241Z,56.46
2023-09-17T10:03:03.733Z,53.08
2023-09-17T10:18:04.314Z,52.52
2023-09-17T10:33:05.058Z,50.04
2023-09-17T10:48:05.804Z,48.70
2023-09-17T11:03:06.477Z,47.14
2023-09-17T11:18:06.761Z,47.54
2023-09-17T11:33:07.475Z,48.25
2023-09-17T11:48:07.803Z,48.05
2023-09-17T12:03:08.338Z,46.25
2023-09-17T12:18:09.078Z,42.29
2023-09-17T12:33:09.851Z,46.85
2023-09-17T12:48:10.405Z,41.77
2023-09-17T13:03:10.832Z,41.49
2023-09-17T13:18:11.450Z,40.74
2023-09-17T13:33:12.236Z,42.87
2023-09-17T13:48:13.222Z,42.10
2023-09-17T14:03:13.722Z,39.67
2023-09-17T14:18:14.526Z,42.08
2023-09-17T14:33:15.374Z,42.99
2023-09-17T14:48:15.964Z,44.22
2023-09-17T15:03:17.107Z,43.86
2023-09-17T15:18:16.953Z,44.80
2023-09-17T15:33:17.339Z,43.80
2023-09-17T15:48:17.623Z,45.06
2023-09-17T16:03:20.441Z,48.07
2023-09-17T16:18:19.021Z,48.81
2023-09-17T16:33:19.958Z,50.19
2023-09-17T16:48:20.447Z,52.54
2023-09-17T17:03:21.074Z,55.65
2023-09-17T17:18:21.378Z,58.68
2023-09-17T17:33:21.935Z,59.97
2023-09-17T17:48:43.421Z,61.51
2023-09-17T18:03:24.533Z,62.43
2023-09-17T18:18:45.417Z,64.00
2023-09-17T18:33:24.824Z,65.78
2023-09-17T18:48:25.767Z,66.07
2023-09-17T19:03:26.626Z,67.07
2023-09-17T19:18:27.113Z,68.04
2023-09-17T19:33:27.889Z,69.65
2023-09-17T20:03:29.289Z,74.78
2023-09-17T20:18:29.824Z,74.44
2023-09-17T20:33:30.344Z,74.82
2023-09-17T20:48:31.074Z,75.05
2023-09-17T21:03:31.923Z,74.63
2023-09-17T21:18:37.553Z,76.36
2023-09-17T21:33:32.712Z,75.72
2023-09-17T21:48:33.497Z,79.38
2023-09-17T22:03:34.414Z,78.73
2023-09-17T22:18:35.199Z,78.83
2023-09-17T22:33:35.429Z,79.02
2023-09-17T22:48:35.954Z,78.94
2023-09-17T23:03:36.611Z,79.77
2023-09-17T23:18:37.319Z,79.75
2023-09-17T23:33:38.174Z,80.41
2023-09-17T23:48:39.116Z,80.64
